Time;durP1;ratioP1;P1;durP2;ratioP2;P2;SDS_P1;SDS_P2;PMS_P1;PMS_P2;Temp;Humidity;BMP_temperature;BMP_pressure;BME280_temperature;BME280_humidity;BME280_pressure;Samples;Min_cycle;Max_cycle;Signal;HPM_P1;HPM_P2
2022/12/31 00:00:37;;;;;;;0.70;0.52;;;18.10;71.40;;;;;;5075970;28;20052;-26
2022/12/31 00:03:07;;;;;;;0.70;0.65;;;18.10;71.40;;;;;;5076248;28;20068;-25
2022/12/31 00:05:34;;;;;;;0.70;0.63;;;18.20;71.20;;;;;;5068395;28;20052;-22
2022/12/31 00:08:00;;;;;;;0.65;0.40;;;18.30;70.60;;;;;;5075775;28;20040;-25
2022/12/31 00:10:26;;;;;;;0.80;0.63;;;18.10;71.20;;;;;;5073645;28;20135;-23
2022/12/31 00:12:51;;;;;;;0.82;0.52;;;18.20;71.10;;;;;;5071639;28;20179;-24
2022/12/31 00:15:17;;;;;;;0.93;0.50;;;18.20;71.20;;;;;;5076617;28;20082;-24
2022/12/31 00:17:43;;;;;;;1.00;0.70;;;18.00;71.40;;;;;;5073778;28;20052;-23
2022/12/31 00:20:08;;;;;;;0.70;0.50;;;18.20;71.40;;;;;;5074378;28;20044;-24
2022/12/31 00:22:34;;;;;;;1.25;0.80;;;18.20;71.20;;;;;;5073841;28;20036;-22
2022/12/31 00:25:00;;;;;;;0.50;0.50;;;18.20;71.30;;;;;;5077815;28;20078;-22
2022/12/31 00:27:25;;;;;;;1.15;0.70;;;18.10;71.10;;;;;;5070616;28;20041;-23
2022/12/31 00:29:51;;;;;;;2.15;0.80;;;18.10;71.30;;;;;;5079284;28;20055;-22
2022/12/31 00:32:16;;;;;;;0.55;0.30;;;18.20;71.00;;;;;;5074915;28;20578;-23
2022/12/31 00:34:42;;;;;;;0.70;0.70;;;18.30;70.90;;;;;;5073203;28;20123;-24
2022/12/31 00:37:07;;;;;;;0.68;0.50;;;18.10;71.30;;;;;;5069467;28;20040;-28
2022/12/31 00:39:33;;;;;;;0.40;0.30;;;18.00;71.50;;;;;;5079608;28;20496;-22
2022/12/31 00:41:58;;;;;;;0.55;0.55;;;18.20;71.20;;;;;;5073366;28;20032;-29
2022/12/31 00:44:24;;;;;;;0.77;0.60;;;18.20;71.10;;;;;;5074858;28;20045;-24
2022/12/31 00:46:50;;;;;;;0.68;0.50;;;18.30;71.00;;;;;;5072051;28;20390;-21
2022/12/31 00:49:15;;;;;;;0.50;0.50;;;18.30;71.00;;;;;;5075047;28;20051;-23
2022/12/31 00:51:41;;;;;;;0.68;0.43;;;18.20;71.10;;;;;;5074557;28;20067;-23
2022/12/31 00:54:07;;;;;;;0.30;0.30;;;18.20;70.90;;;;;;5072112;28;20040;-22
2022/12/31 00:56:33;;;;;;;0.40;0.40;;;18.20;70.90;;;;;;5077990;28;20063;-26
2022/12/31 00:58:59;;;;;;;1.05;0.50;;;18.20;71.30;;;;;;5074903;28;20052;-23
2022/12/31 01:01:27;;;;;;;1.40;0.60;;;18.00;71.70;;;;;;5071505;28;20102;-23
2022/12/31 01:03:57;;;;;;;0.70;0.70;;;18.10;71.40;;;;;;5068627;28;20048;-23
2022/12/31 01:06:23;;;;;;;2.65;0.45;;;18.10;72.00;;;;;;5066738;28;20040;-28
2022/12/31 01:08:49;;;;;;;0.40;0.30;;;18.00;71.70;;;;;;5080285;28;20056;-21
2022/12/31 01:11:23;;;;;;;0.40;0.40;;;17.90;72.00;;;;;;5079804;28;20412;-25
2022/12/31 01:13:55;;;;;;;0.30;0.30;;;18.00;71.70;;;;;;5068883;28;20056;-24
2022/12/31 01:16:25;;;;;;;0.50;0.38;;;18.10;71.90;;;;;;5068461;28;20043;-24
2022/12/31 01:18:51;;;;;;;0.65;0.43;;;18.10;71.50;;;;;;5071330;28;20052;-24
2022/12/31 01:21:16;;;;;;;0.50;0.50;;;18.20;71.30;;;;;;5068113;28;20036;-21
2022/12/31 01:23:42;;;;;;;0.40;0.30;;;18.10;71.50;;;;;;5069524;28;20052;-22
2022/12/31 01:26:08;;;;;;;1.08;0.50;;;18.00;71.60;;;;;;5072031;28;20045;-30
2022/12/31 01:28:34;;;;;;;0.70;0.60;;;18.00;71.60;;;;;;5071931;28;20056;-25
2022/12/31 01:31:04;;;;;;;0.55;0.50;;;18.10;71.60;;;;;;5072463;28;20032;-23
2022/12/31 01:33:30;;;;;;;0.60;0.55;;;18.00;71.70;;;;;;5072976;28;20150;-25
2022/12/31 01:36:04;;;;;;;0.40;0.30;;;18.00;71.80;;;;;;5072048;28;20036;-24
2022/12/31 01:38:29;;;;;;;0.75;0.40;;;17.90;72.20;;;;;;5072250;28;20044;-31
2022/12/31 01:40:55;;;;;;;0.60;0.40;;;17.80;72.40;;;;;;5074727;28;20040;-22
2022/12/31 01:43:20;;;;;;;0.63;0.50;;;17.80;72.70;;;;;;5075512;28;20131;-25
2022/12/31 01:45:51;;;;;;;0.55;0.45;;;17.90;72.50;;;;;;5073197;28;20052;-22
2022/12/31 01:48:20;;;;;;;0.40;0.40;;;17.90;72.30;;;;;;5056260;28;20183;-26
2022/12/31 01:50:46;;;;;;;0.65;0.47;;;17.90;72.20;;;;;;5070973;28;20043;-24
2022/12/31 01:53:12;;;;;;;0.52;0.50;;;17.90;72.30;;;;;;5059459;28;20052;-24
2022/12/31 01:55:49;;;;;;;0.40;0.40;;;17.80;72.40;;;;;;5055406;28;20048;-23
2022/12/31 01:58:26;;;;;;;0.50;0.40;;;17.80;72.40;;;;;;5066685;28;20044;-22
2022/12/31 02:00:52;;;;;;;0.50;0.50;;;17.80;72.40;;;;;;5063169;28;20489;-21
2022/12/31 02:03:18;;;;;;;0.82;0.30;;;17.90;72.40;;;;;;5071800;28;20044;-26
2022/12/31 02:05:53;;;;;;;0.75;0.40;;;17.90;72.20;;;;;;5063504;28;20044;-22
2022/12/31 02:08:19;;;;;;;0.40;0.30;;;17.90;72.20;;;;;;5036773;28;20154;-23
2022/12/31 02:10:45;;;;;;;0.85;0.45;;;17.90;72.30;;;;;;5047826;28;20157;-23
2022/12/31 02:13:10;;;;;;;0.47;0.35;;;17.90;72.30;;;;;;5075856;28;20047;-23
2022/12/31 02:15:58;;;;;;;1.15;0.50;;;17.90;72.10;;;;;;5068507;28;20029;-23
2022/12/31 02:18:35;;;;;;;0.77;0.77;;;17.90;72.30;;;;;;5047656;28;20051;-23
2022/12/31 02:21:15;;;;;;;0.40;0.30;;;17.90;72.40;;;;;;5072700;28;20041;-22
2022/12/31 02:24:02;;;;;;;0.50;0.40;;;17.70;73.00;;;;;;5074337;28;20101;-23
2022/12/31 02:26:36;;;;;;;0.60;0.30;;;17.80;72.80;;;;;;5070473;28;20127;-26
2022/12/31 02:29:32;;;;;;;0.35;0.30;;;17.80;72.70;;;;;;5065343;28;20044;-23
2022/12/31 02:32:11;;;;;;;0.80;0.50;;;17.80;72.80;;;;;;5070591;28;20624;-25
2022/12/31 02:34:40;;;;;;;1.88;0.40;;;17.90;72.60;;;;;;5068473;28;20067;-26
2022/12/31 02:37:08;;;;;;;0.50;0.40;;;17.90;72.50;;;;;;5053088;28;20135;-22
2022/12/31 02:39:34;;;;;;;0.45;0.30;;;17.90;72.60;;;;;;5057260;28;20040;-27
2022/12/31 02:41:59;;;;;;;0.50;0.40;;;17.90;72.50;;;;;;5058896;28;20515;-26
2022/12/31 02:44:36;;;;;;;0.50;0.30;;;17.80;72.40;;;;;;5057304;28;20097;-23
2022/12/31 02:47:08;;;;;;;0.57;0.40;;;17.80;72.60;;;;;;5072049;28;20056;-22
2022/12/31 02:49:33;;;;;;;0.45;0.35;;;17.90;72.50;;;;;;5071419;28;20051;-26
2022/12/31 02:52:09;;;;;;;0.80;0.32;;;17.90;72.50;;;;;;5070942;28;20048;-21
2022/12/31 02:55:16;;;;;;;0.30;0.28;;;17.80;72.50;;;;;;5064932;28;20079;-24
2022/12/31 02:58:04;;;;;;;1.10;0.30;;;17.90;72.50;;;;;;5044808;28;20040;-26
2022/12/31 03:03:15;;;;;;;0.43;0.43;;;17.80;72.40;;;;;;5059024;28;20103;-24
2022/12/31 03:05:41;;;;;;;0.50;0.30;;;17.80;72.60;;;;;;5066594;28;20066;-23
2022/12/31 03:08:07;;;;;;;1.27;0.30;;;17.80;72.60;;;;;;5058453;28;20047;-24
2022/12/31 03:10:33;;;;;;;0.68;0.35;;;17.80;72.50;;;;;;5076712;28;20032;-23
2022/12/31 03:12:59;;;;;;;0.50;0.30;;;17.90;72.50;;;;;;5074568;28;20047;-23
2022/12/31 03:15:29;;;;;;;0.30;0.22;;;17.80;72.50;;;;;;5072646;28;20037;-26
2022/12/31 03:18:14;;;;;;;0.32;0.30;;;17.80;72.60;;;;;;5075341;28;20471;-22
2022/12/31 03:23:35;;;;;;;0.65;0.30;;;17.80;72.70;;;;;;5077848;28;19981;-22
2022/12/31 03:26:01;;;;;;;0.20;0.20;;;17.80;72.60;;;;;;5073324;28;20048;-24
2022/12/31 03:28:28;;;;;;;0.52;0.40;;;17.80;72.70;;;;;;5073081;28;20040;-24
2022/12/31 03:30:56;;;;;;;0.30;0.30;;;17.80;72.80;;;;;;5073860;28;20047;-28
2022/12/31 03:33:21;;;;;;;0.32;0.20;;;17.80;72.80;;;;;;5078128;28;20056;-24
2022/12/31 03:35:47;;;;;;;0.40;0.32;;;17.80;72.70;;;;;;5083211;28;20040;-24
2022/12/31 03:38:13;;;;;;;0.57;0.40;;;17.80;72.80;;;;;;5078455;28;20037;-26
2022/12/31 03:40:42;;;;;;;0.50;0.30;;;17.80;72.80;;;;;;5075265;28;20048;-24
2022/12/31 03:43:07;;;;;;;0.47;0.30;;;17.80;72.60;;;;;;5075320;28;20121;-24
2022/12/31 03:45:33;;;;;;;0.28;0.25;;;17.90;72.60;;;;;;5051570;28;20067;-24
2022/12/31 03:48:00;;;;;;;0.20;0.20;;;17.80;72.80;;;;;;5051056;28;20041;-23
2022/12/31 03:50:25;;;;;;;0.68;0.50;;;17.80;72.80;;;;;;5049278;28;20052;-24
2022/12/31 03:52:51;;;;;;;0.88;0.40;;;17.80;72.90;;;;;;5048423;28;20057;-23
2022/12/31 03:55:17;;;;;;;0.55;0.30;;;17.80;73.00;;;;;;5049613;28;20036;-21
2022/12/31 03:57:42;;;;;;;0.50;0.40;;;17.80;72.90;;;;;;5048385;28;20053;-27
2022/12/31 04:00:10;;;;;;;0.70;0.50;;;17.80;73.00;;;;;;5050195;28;20062;-24
2022/12/31 04:02:36;;;;;;;0.43;0.43;;;17.70;73.10;;;;;;5041723;28;20151;-25
2022/12/31 04:05:02;;;;;;;0.60;0.40;;;17.80;73.00;;;;;;5051711;28;20127;-22
2022/12/31 04:07:27;;;;;;;0.60;0.50;;;17.80;73.20;;;;;;5047734;28;20049;-21
2022/12/31 04:09:53;;;;;;;0.30;0.20;;;17.80;73.10;;;;;;5049103;28;20041;-22
2022/12/31 04:12:18;;;;;;;0.30;0.28;;;17.80;73.00;;;;;;5048210;28;20045;-27
2022/12/31 04:14:44;;;;;;;0.30;0.28;;;17.80;73.00;;;;;;5049060;28;20525;-23
2022/12/31 04:17:09;;;;;;;0.40;0.30;;;17.80;73.20;;;;;;5048809;28;20088;-24
2022/12/31 04:19:36;;;;;;;0.65;0.20;;;17.70;73.30;;;;;;5049309;28;20048;-25
2022/12/31 04:22:02;;;;;;;0.40;0.40;;;17.70;73.30;;;;;;5049044;28;20051;-26
2022/12/31 04:24:27;;;;;;;0.30;0.30;;;17.80;73.30;;;;;;5048150;28;20124;-22
2022/12/31 04:26:53;;;;;;;0.50;0.32;;;17.80;73.00;;;;;;5047511;28;20524;-22
2022/12/31 04:29:19;;;;;;;0.63;0.20;;;17.80;73.00;;;;;;5048508;28;20123;-24
2022/12/31 04:31:44;;;;;;;0.68;0.43;;;17.90;73.00;;;;;;5047952;28;20041;-27
2022/12/31 04:34:10;;;;;;;0.35;0.35;;;17.80;72.80;;;;;;5048805;28;20516;-22
2022/12/31 04:36:35;;;;;;;0.73;0.40;;;17.90;72.70;;;;;;5051135;28;20045;-22
2022/12/31 04:39:01;;;;;;;0.68;0.50;;;17.80;72.80;;;;;;5048107;28;20045;-23
2022/12/31 04:41:26;;;;;;;0.45;0.20;;;17.80;72.70;;;;;;5046079;28;20037;-22
2022/12/31 04:43:54;;;;;;;0.68;0.40;;;17.80;72.70;;;;;;5057293;28;20127;-24
2022/12/31 04:46:28;;;;;;;0.47;0.30;;;17.90;72.70;;;;;;5073751;28;20039;-27
2022/12/31 04:48:54;;;;;;;0.85;0.50;;;17.70;72.80;;;;;;5074355;28;20093;-22
2022/12/31 04:51:19;;;;;;;1.67;0.30;;;17.80;72.90;;;;;;5073093;28;20045;-22
2022/12/31 04:53:45;;;;;;;0.60;0.30;;;17.80;72.80;;;;;;5073833;28;20062;-26
2022/12/31 04:56:11;;;;;;;0.63;0.20;;;17.70;73.00;;;;;;5072374;28;20040;-24
2022/12/31 04:58:36;;;;;;;0.35;0.30;;;17.70;73.00;;;;;;5072794;28;20131;-23
2022/12/31 05:01:02;;;;;;;0.52;0.20;;;17.70;73.00;;;;;;5072587;28;20033;-22
2022/12/31 05:03:28;;;;;;;0.50;0.50;;;17.80;72.80;;;;;;5069781;28;20423;-22
2022/12/31 05:05:58;;;;;;;0.38;0.30;;;17.70;72.90;;;;;;5075704;28;20044;-23
2022/12/31 05:08:23;;;;;;;0.55;0.55;;;17.80;72.90;;;;;;5074280;28;20516;-23
2022/12/31 05:10:49;;;;;;;0.50;0.30;;;17.80;72.80;;;;;;5071912;28;20127;-21
2022/12/31 05:13:15;;;;;;;0.30;0.20;;;17.80;72.60;;;;;;5070648;28;20040;-23
2022/12/31 05:15:40;;;;;;;1.13;0.40;;;17.70;72.90;;;;;;5071677;28;20040;-22
2022/12/31 05:18:06;;;;;;;0.40;0.35;;;17.70;73.00;;;;;;5075081;28;20055;-22
2022/12/31 05:20:32;;;;;;;0.55;0.30;;;17.80;72.80;;;;;;5067544;28;20050;-22
2022/12/31 05:22:57;;;;;;;0.40;0.30;;;17.80;72.90;;;;;;5074664;28;20068;-28
2022/12/31 05:25:23;;;;;;;0.43;0.30;;;17.80;72.80;;;;;;5070578;28;20040;-25
2022/12/31 05:27:48;;;;;;;0.20;0.17;;;17.80;72.90;;;;;;5072702;28;20040;-27
2022/12/31 05:30:14;;;;;;;0.40;0.30;;;17.80;72.90;;;;;;5075977;28;20047;-24
2022/12/31 05:32:40;;;;;;;0.45;0.20;;;17.80;72.70;;;;;;5074726;28;20102;-24
2022/12/31 05:35:06;;;;;;;0.40;0.30;;;17.80;72.40;;;;;;5070063;28;20060;-21
2022/12/31 05:37:32;;;;;;;0.20;0.20;;;17.80;72.70;;;;;;5075590;28;20043;-27
2022/12/31 05:39:57;;;;;;;0.73;0.50;;;17.80;72.80;;;;;;5071618;28;20053;-24
2022/12/31 05:42:23;;;;;;;0.30;0.20;;;17.70;72.90;;;;;;5074942;28;20037;-27
2022/12/31 05:44:48;;;;;;;0.20;0.20;;;17.80;72.90;;;;;;5055675;28;20413;-22
2022/12/31 05:47:14;;;;;;;0.20;0.20;;;17.80;72.80;;;;;;5054708;28;20041;-25
2022/12/31 05:49:40;;;;;;;0.30;0.30;;;17.70;73.00;;;;;;5055820;28;20048;-22
2022/12/31 05:52:05;;;;;;;0.35;0.28;;;17.80;72.80;;;;;;5051383;28;20052;-22
2022/12/31 05:54:31;;;;;;;0.30;0.20;;;17.80;72.90;;;;;;5051251;28;20423;-22
2022/12/31 05:56:57;;;;;;;0.80;0.57;;;17.70;73.00;;;;;;5053723;28;20056;-31
2022/12/31 05:59:22;;;;;;;1.38;0.32;;;17.70;73.00;;;;;;5057209;28;20471;-28
2022/12/31 06:01:48;;;;;;;0.57;0.40;;;17.70;73.00;;;;;;5051992;28;20076;-23
2022/12/31 06:04:14;;;;;;;0.82;0.40;;;17.70;73.00;;;;;;5051205;28;20048;-31
2022/12/31 06:06:39;;;;;;;0.45;0.22;;;17.80;73.10;;;;;;5055440;28;20039;-26
2022/12/31 06:09:05;;;;;;;0.50;0.30;;;17.70;72.90;;;;;;5053797;28;20054;-23
2022/12/31 06:11:30;;;;;;;0.30;0.20;;;17.70;73.00;;;;;;5056405;28;20059;-21
2022/12/31 06:13:57;;;;;;;0.50;0.32;;;17.70;72.90;;;;;;5051146;28;20522;-22
2022/12/31 06:16:23;;;;;;;0.20;0.20;;;17.80;72.90;;;;;;5050936;28;20045;-25
2022/12/31 06:18:51;;;;;;;0.52;0.35;;;17.80;73.00;;;;;;5046551;28;20043;-23
2022/12/31 06:21:17;;;;;;;0.60;0.35;;;17.70;73.20;;;;;;5053192;28;20091;-21
2022/12/31 06:23:43;;;;;;;0.90;0.20;;;17.70;73.10;;;;;;5052753;28;20037;-21
2022/12/31 06:26:08;;;;;;;0.40;0.40;;;17.70;73.00;;;;;;5051356;28;20048;-24
2022/12/31 06:28:34;;;;;;;0.65;0.50;;;17.70;73.10;;;;;;5050350;28;20049;-22
2022/12/31 06:31:01;;;;;;;0.70;0.30;;;17.70;73.00;;;;;;5054982;28;20033;-24
2022/12/31 06:33:26;;;;;;;0.75;0.32;;;17.70;73.00;;;;;;5052221;28;20110;-23
2022/12/31 06:35:59;;;;;;;0.63;0.20;;;17.80;72.80;;;;;;5048697;28;20048;-30
2022/12/31 06:38:25;;;;;;;0.28;0.20;;;17.80;72.70;;;;;;5049653;28;20041;-32
2022/12/31 06:40:51;;;;;;;0.55;0.38;;;17.70;72.80;;;;;;5051764;28;20045;-26
2022/12/31 06:43:16;;;;;;;0.20;0.20;;;17.70;72.70;;;;;;5053146;28;20056;-21
2022/12/31 06:45:42;;;;;;;0.45;0.30;;;17.80;72.70;;;;;;5074147;28;20062;-25
2022/12/31 06:48:08;;;;;;;0.43;0.28;;;17.80;72.40;;;;;;5068365;28;20999;-21
2022/12/31 06:50:33;;;;;;;0.38;0.30;;;17.70;72.60;;;;;;5073467;28;20043;-21
2022/12/31 06:52:59;;;;;;;0.30;0.30;;;17.70;72.80;;;;;;5070238;28;20072;-25
2022/12/31 06:55:25;;;;;;;0.65;0.47;;;17.70;72.70;;;;;;5066815;28;20041;-25
2022/12/31 06:57:51;;;;;;;0.43;0.40;;;17.70;72.70;;;;;;5070562;28;20072;-28
2022/12/31 07:00:17;;;;;;;0.60;0.32;;;17.70;72.80;;;;;;5075806;28;20047;-26
2022/12/31 07:02:59;;;;;;;0.75;0.40;;;17.70;72.70;;;;;;5074261;28;20102;-27
2022/12/31 07:06:06;;;;;;;0.70;0.40;;;17.70;72.80;;;;;;5072134;28;20107;-25
2022/12/31 07:08:44;;;;;;;0.47;0.38;;;17.70;72.80;;;;;;5042067;28;20053;-23
2022/12/31 07:11:20;;;;;;;0.65;0.43;;;17.70;72.90;;;;;;5069317;28;20055;-27
2022/12/31 07:13:48;;;;;;;1.75;0.30;;;17.70;72.90;;;;;;5073916;28;20049;-27
2022/12/31 07:16:26;;;;;;;1.10;0.40;;;17.80;72.70;;;;;;5056896;28;20421;-27
2022/12/31 07:19:16;;;;;;;0.70;0.38;;;17.70;72.60;;;;;;5075495;28;20041;-30
2022/12/31 07:21:41;;;;;;;0.65;0.43;;;17.70;72.90;;;;;;5064919;28;20052;-26
2022/12/31 07:24:08;;;;;;;0.30;0.30;;;17.70;72.70;;;;;;5065362;28;20052;-25
2022/12/31 07:26:58;;;;;;;0.80;0.40;;;17.80;72.60;;;;;;5068206;28;20090;-27
2022/12/31 07:29:39;;;;;;;0.32;0.32;;;17.70;72.80;;;;;;5073504;28;20127;-34
2022/12/31 07:32:29;;;;;;;0.25;0.20;;;17.70;72.80;;;;;;5072569;28;20040;-25
2022/12/31 07:35:15;;;;;;;0.65;0.30;;;17.70;72.80;;;;;;5071463;28;20447;-29
2022/12/31 07:37:54;;;;;;;0.32;0.30;;;17.70;72.70;;;;;;5072661;28;20860;-25
2022/12/31 07:40:41;;;;;;;0.65;0.40;;;17.70;72.80;;;;;;5053162;28;20055;-32
2022/12/31 07:43:09;;;;;;;1.15;0.20;;;17.70;72.80;;;;;;5077159;28;20075;-25
2022/12/31 07:45:41;;;;;;;0.47;0.30;;;17.70;72.80;;;;;;5075832;28;20136;-28
2022/12/31 07:48:33;;;;;;;0.60;0.52;;;17.70;72.90;;;;;;5070179;28;20423;-27
2022/12/31 07:50:58;;;;;;;0.45;0.35;;;17.70;72.80;;;;;;5075789;28;20093;-28
2022/12/31 07:53:24;;;;;;;1.95;0.50;;;17.70;72.70;;;;;;5072020;28;20056;-29
2022/12/31 07:55:55;;;;;;;0.30;0.28;;;17.70;72.90;;;;;;5069980;28;20044;-27
2022/12/31 07:58:20;;;;;;;1.52;0.40;;;17.70;72.90;;;;;;5052133;28;20064;-29
2022/12/31 08:00:46;;;;;;;2.13;0.50;;;17.70;72.90;;;;;;5079628;28;20048;-33
2022/12/31 08:03:29;;;;;;;1.67;0.50;;;17.60;73.00;;;;;;5048604;28;20048;-29
2022/12/31 08:06:22;;;;;;;2.80;0.35;;;17.70;73.00;;;;;;5055148;28;20517;-28
2022/12/31 08:09:01;;;;;;;1.98;0.32;;;17.70;72.80;;;;;;5074554;28;20778;-27
2022/12/31 08:12:01;;;;;;;0.98;0.60;;;17.70;72.60;;;;;;5075177;28;20044;-24
2022/12/31 08:14:27;;;;;;;1.83;0.40;;;17.70;72.60;;;;;;5044484;28;20128;-27
2022/12/31 08:16:53;;;;;;;1.20;0.30;;;17.80;72.40;;;;;;5075349;28;20028;-29
2022/12/31 08:19:23;;;;;;;0.85;0.50;;;17.80;72.40;;;;;;5073516;28;20057;-26
2022/12/31 08:22:14;;;;;;;0.75;0.40;;;17.80;72.50;;;;;;5069490;28;20507;-24
2022/12/31 08:24:59;;;;;;;1.55;0.40;;;17.70;72.70;;;;;;5067424;28;20516;-25
2022/12/31 08:27:40;;;;;;;0.73;0.40;;;17.80;72.50;;;;;;5049635;28;20044;-27
2022/12/31 08:30:13;;;;;;;2.63;0.52;;;17.70;73.00;;;;;;5046919;28;20040;-28
2022/12/31 08:32:50;;;;;;;2.28;0.57;;;17.70;73.10;;;;;;5065468;28;20049;-24
2022/12/31 08:35:57;;;;;;;0.55;0.55;;;17.70;73.20;;;;;;5067906;28;20481;-27
2022/12/31 08:38:37;;;;;;;0.50;0.30;;;17.70;73.10;;;;;;5069905;28;20045;-29
2022/12/31 08:41:13;;;;;;;0.55;0.47;;;17.70;73.60;;;;;;5063661;28;20042;-30
2022/12/31 08:44:04;;;;;;;0.65;0.35;;;17.80;73.00;;;;;;5072144;28;20131;-28
2022/12/31 08:46:51;;;;;;;0.60;0.30;;;17.60;73.10;;;;;;5062610;28;20063;-24
2022/12/31 08:49:16;;;;;;;2.15;0.45;;;17.70;73.10;;;;;;5062362;28;20044;-25
2022/12/31 08:51:42;;;;;;;1.13;0.50;;;17.60;73.30;;;;;;5067556;28;20045;-27
2022/12/31 08:54:11;;;;;;;0.60;0.40;;;17.70;73.10;;;;;;5066723;28;20048;-25
2022/12/31 08:56:55;;;;;;;0.57;0.30;;;17.70;72.70;;;;;;5071932;28;20052;-31
2022/12/31 08:59:42;;;;;;;0.65;0.40;;;17.80;72.40;;;;;;5067252;28;20464;-25
2022/12/31 09:02:23;;;;;;;1.40;0.50;;;17.70;72.50;;;;;;5048529;28;20555;-28
2022/12/31 09:05:02;;;;;;;0.93;0.55;;;17.70;72.40;;;;;;5071983;28;20417;-25
2022/12/31 09:07:36;;;;;;;0.82;0.30;;;17.70;72.40;;;;;;5064790;28;20056;-28
2022/12/31 09:10:04;;;;;;;2.10;0.75;;;17.70;72.60;;;;;;5067053;28;20083;-28
2022/12/31 09:12:48;;;;;;;0.80;0.50;;;17.70;72.70;;;;;;5069625;28;20048;-26
2022/12/31 09:15:29;;;;;;;0.73;0.60;;;17.60;72.90;;;;;;5066963;28;20565;-27
2022/12/31 09:17:55;;;;;;;0.60;0.30;;;17.70;73.00;;;;;;5052789;28;20036;-28
2022/12/31 09:20:30;;;;;;;0.50;0.20;;;17.70;73.00;;;;;;5073877;28;20040;-28
2022/12/31 09:22:56;;;;;;;1.30;0.40;;;17.70;73.00;;;;;;5070718;28;20044;-30
2022/12/31 09:25:23;;;;;;;0.50;0.40;;;17.70;73.00;;;;;;5066270;28;20052;-31
2022/12/31 09:28:15;;;;;;;0.63;0.35;;;17.70;73.10;;;;;;5072736;28;20036;-28
2022/12/31 09:30:59;;;;;;;1.25;0.50;;;17.70;73.00;;;;;;5046690;28;20032;-28
2022/12/31 09:33:47;;;;;;;2.35;0.35;;;17.80;73.10;;;;;;5049122;28;20205;-29
2022/12/31 09:36:25;;;;;;;0.30;0.30;;;17.80;73.20;;;;;;5075191;28;20497;-27
2022/12/31 09:38:59;;;;;;;0.77;0.30;;;17.80;73.70;;;;;;4339346;28;10000282;-28
2022/12/31 09:41:27;;;;;;;;;;;17.90;72.90;;;;;;5061861;28;20309;-25
2022/12/31 09:44:07;;;;;;;0.63;0.50;;;17.80;73.70;;;;;;5064434;28;19990;-32
2022/12/31 09:46:39;;;;;;;2.67;0.45;;;17.80;73.90;;;;;;5064733;28;20369;-27
2022/12/31 09:49:38;;;;;;;0.60;0.32;;;17.60;74.40;;;;;;5060761;28;20051;-27
2022/12/31 09:52:30;;;;;;;2.88;0.98;;;17.60;74.70;;;;;;5064277;28;20040;-25
2022/12/31 09:55:11;;;;;;;1.52;0.50;;;17.70;74.50;;;;;;5027198;28;20074;-27
2022/12/31 09:58:01;;;;;;;0.52;0.40;;;17.60;74.60;;;;;;5061550;28;20127;-29
2022/12/31 10:00:56;;;;;;;1.02;0.60;;;17.60;74.90;;;;;;5039974;28;20061;-29
2022/12/31 10:03:26;;;;;;;0.52;0.38;;;17.60;75.00;;;;;;5037245;28;20049;-25
2022/12/31 10:06:14;;;;;;;0.60;0.30;;;17.60;75.10;;;;;;5043323;28;20070;-33
2022/12/31 10:09:01;;;;;;;0.98;0.40;;;17.80;74.20;;;;;;5063809;28;20123;-27
2022/12/31 10:11:56;;;;;;;0.50;0.40;;;17.80;74.40;;;;;;5046542;28;20043;-28
2022/12/31 10:14:49;;;;;;;1.08;0.68;;;17.80;74.50;;;;;;5042246;28;20083;-25
2022/12/31 10:17:24;;;;;;;2.17;0.50;;;17.90;74.30;;;;;;5065961;28;20032;-27
2022/12/31 10:20:20;;;;;;;0.93;0.50;;;17.90;73.90;;;;;;5050223;28;20040;-32
2022/12/31 10:23:21;;;;;;;0.80;0.30;;;17.90;74.20;;;;;;5069756;28;20029;-24
2022/12/31 10:26:08;;;;;;;2.60;0.60;;;17.80;74.40;;;;;;5053812;28;20485;-26
2022/12/31 10:28:33;;;;;;;1.48;0.73;;;17.70;74.90;;;;;;5071737;28;20043;-25
2022/12/31 10:31:05;;;;;;;0.50;0.35;;;17.80;74.40;;;;;;5072271;28;20128;-25
2022/12/31 10:33:51;;;;;;;1.52;0.70;;;17.80;74.50;;;;;;5069354;28;20048;-35
2022/12/31 10:36:31;;;;;;;1.25;0.73;;;17.90;74.60;;;;;;5073284;28;20051;-38
2022/12/31 10:39:05;;;;;;;0.82;0.30;;;17.80;75.00;;;;;;5063015;28;20052;-27
2022/12/31 10:41:40;;;;;;;3.88;0.40;;;17.90;74.80;;;;;;5072282;28;20177;-35
2022/12/31 10:44:47;;;;;;;1.83;0.30;;;17.80;74.70;;;;;;5056846;28;20040;-30
2022/12/31 10:47:24;;;;;;;1.10;0.47;;;17.80;74.60;;;;;;5077118;28;20091;-24
2022/12/31 10:50:17;;;;;;;0.77;0.45;;;17.90;74.60;;;;;;5067716;28;20024;-28
2022/12/31 10:52:42;;;;;;;1.35;0.50;;;17.80;74.60;;;;;;5070594;28;20059;-30
2022/12/31 10:55:29;;;;;;;0.70;0.52;;;17.90;74.40;;;;;;5071865;28;20040;-29
2022/12/31 10:58:28;;;;;;;1.88;0.60;;;17.90;74.50;;;;;;5067229;28;20060;-26
2022/12/31 11:01:25;;;;;;;0.80;0.50;;;17.80;74.80;;;;;;5068760;28;20064;-25
2022/12/31 11:04:15;;;;;;;0.70;0.52;;;17.80;74.90;;;;;;5067376;28;20044;-25
2022/12/31 11:07:14;;;;;;;1.77;0.70;;;17.80;75.10;;;;;;5069196;28;20044;-26
2022/12/31 11:09:59;;;;;;;1.42;0.40;;;17.70;75.30;;;;;;5065025;28;20051;-30
2022/12/31 11:12:33;;;;;;;0.90;0.73;;;17.80;75.00;;;;;;5062513;28;20600;-32
2022/12/31 11:15:20;;;;;;;1.85;0.60;;;17.80;74.80;;;;;;5068207;28;20063;-24
2022/12/31 11:17:57;;;;;;;0.75;0.43;;;17.80;74.80;;;;;;5063684;28;20044;-28
2022/12/31 11:20:44;;;;;;;1.63;0.40;;;17.90;74.80;;;;;;5066093;28;20095;-31
2022/12/31 11:23:22;;;;;;;1.00;0.30;;;17.80;74.90;;;;;;5071134;28;20045;-26
2022/12/31 11:26:21;;;;;;;1.00;0.80;;;17.70;75.10;;;;;;5064885;28;20040;-26
2022/12/31 11:29:01;;;;;;;0.65;0.30;;;17.80;75.10;;;;;;5072309;28;20114;-26
2022/12/31 11:31:57;;;;;;;1.63;0.50;;;17.90;75.00;;;;;;5083720;28;20074;-25
2022/12/31 11:34:45;;;;;;;0.73;0.47;;;17.80;75.10;;;;;;5064120;28;20125;-29
2022/12/31 11:37:37;;;;;;;1.23;0.75;;;17.90;75.00;;;;;;5063264;28;20397;-26
2022/12/31 11:40:14;;;;;;;0.60;0.50;;;17.90;75.10;;;;;;5069281;28;20032;-24
2022/12/31 11:43:03;;;;;;;1.23;0.50;;;17.80;75.10;;;;;;5072468;28;20401;-27
2022/12/31 11:45:52;;;;;;;3.13;0.70;;;17.90;75.80;;;;;;5032733;28;20052;-25
2022/12/31 11:48:51;;;;;;;0.80;0.50;;;17.90;75.60;;;;;;5030505;28;20028;-29
2022/12/31 11:51:19;;;;;;;1.27;0.50;;;17.90;75.10;;;;;;5050079;28;20122;-27
2022/12/31 11:54:09;;;;;;;1.23;0.55;;;17.90;75.00;;;;;;5048648;28;20095;-24
2022/12/31 11:56:40;;;;;;;2.28;0.40;;;17.90;75.20;;;;;;5034215;28;20045;-28
2022/12/31 11:59:12;;;;;;;0.70;0.40;;;17.80;75.70;;;;;;5044928;28;20057;-35
2022/12/31 12:01:51;;;;;;;0.40;0.40;;;17.90;75.60;;;;;;5049170;28;20052;-26
2022/12/31 12:04:16;;;;;;;1.95;0.50;;;17.80;75.60;;;;;;5048636;28;20044;-29
2022/12/31 12:06:44;;;;;;;1.33;0.70;;;17.90;75.00;;;;;;4696740;28;9999962;-27
2022/12/31 12:09:16;;;;;;;1.42;0.57;;;17.90;75.60;;;;;;5045087;28;20072;-27
2022/12/31 12:11:41;;;;;;;0.55;0.47;;;17.90;75.10;;;;;;5013327;28;20099;-27
2022/12/31 12:14:21;;;;;;;0.38;0.38;;;18.00;75.00;;;;;;5046373;28;20052;-27
2022/12/31 12:16:51;;;;;;;1.10;0.68;;;18.00;75.00;;;;;;5051702;28;20582;-27
2022/12/31 12:19:17;;;;;;;1.40;0.77;;;18.10;74.60;;;;;;5045257;28;20040;-32
2022/12/31 12:21:46;;;;;;;1.15;0.57;;;17.90;74.70;;;;;;5047422;28;21044;-26
2022/12/31 12:24:28;;;;;;;1.83;0.80;;;17.90;74.30;;;;;;5042627;28;20037;-24
2022/12/31 12:26:53;;;;;;;1.10;0.68;;;18.00;73.70;;;;;;5043832;28;20659;-28
2022/12/31 12:29:25;;;;;;;1.60;0.63;;;18.30;72.70;;;;;;5047483;28;20044;-28
2022/12/31 12:31:58;;;;;;;2.17;0.80;;;18.40;72.80;;;;;;5049964;28;20086;-27
2022/12/31 12:34:26;;;;;;;1.38;0.95;;;18.40;72.80;;;;;;5043766;28;20047;-27
2022/12/31 12:36:51;;;;;;;1.70;0.77;;;18.50;72.70;;;;;;5050053;28;20033;-27
2022/12/31 12:39:22;;;;;;;1.40;0.90;;;18.50;72.70;;;;;;5045124;28;20109;-25
2022/12/31 12:42:09;;;;;;;2.40;1.23;;;18.50;72.50;;;;;;5045906;28;20119;-29
2022/12/31 12:44:34;;;;;;;1.38;1.00;;;18.50;72.40;;;;;;5026158;28;20060;-25
2022/12/31 12:47:01;;;;;;;3.35;1.05;;;18.50;72.40;;;;;;5042177;28;20049;-31
2022/12/31 12:49:29;;;;;;;2.20;1.27;;;18.70;72.20;;;;;;5043722;28;20590;-30
2022/12/31 12:52:32;;;;;;;3.05;0.95;;;18.70;71.90;;;;;;5021842;28;20052;-27
2022/12/31 12:55:14;;;;;;;2.35;1.05;;;18.70;71.60;;;;;;5021020;28;20433;-28
2022/12/31 12:57:45;;;;;;;3.03;1.10;;;18.70;71.70;;;;;;5023131;28;20040;-29
2022/12/31 13:00:28;;;;;;;1.05;0.80;;;18.70;71.90;;;;;;5037721;28;20044;-30
2022/12/31 13:03:15;;;;;;;2.40;1.00;;;18.70;71.90;;;;;;5029673;28;20136;-27
2022/12/31 13:06:06;;;;;;;2.58;1.20;;;18.70;71.80;;;;;;5043366;28;20053;-30
2022/12/31 13:08:51;;;;;;;2.50;1.13;;;18.70;71.60;;;;;;5028240;28;20045;-29
2022/12/31 13:11:35;;;;;;;1.27;1.05;;;18.60;72.20;;;;;;5040085;28;20144;-27
2022/12/31 13:14:23;;;;;;;;;;;18.70;71.90;;;;;;5044468;28;20564;-29
2022/12/31 13:17:03;;;;;;;3.22;1.00;;;18.70;71.90;;;;;;5019489;28;20377;-30
2022/12/31 13:19:35;;;;;;;1.38;1.17;;;18.70;71.80;;;;;;5046924;28;20045;-30
2022/12/31 13:22:15;;;;;;;1.30;1.20;;;18.70;71.80;;;;;;5036869;28;20126;-29
2022/12/31 13:24:52;;;;;;;1.40;0.98;;;18.70;71.70;;;;;;5046729;28;20045;-27